< < Back
Terminal Aerodrome Forecast


Current Version              Previous Versions:   1  2  3  4  5  6  7  8  9  

Terminal Aerodrome Forecast

059
FTUS42 KFFC 162300
TAFPDK
TAF
KPDK 162328Z 1700/1724 33005KT P6SM SCT250
     FM170900 34003KT 5SM BR FEW250
     FM171500 33005KT P6SM FEW040 FEW250=

Latest METAR

716
SAUS70 KWBC 172100 RRD
MTRPDK
METAR KPDK 172053Z AUTO 28006KT 10SM CLR 28/14 A2991 RMK AO2 SLP111
T02830144 56013 TSNO


USA.gov is the U.S. government's official web portal to all federal, state and local government web resources and services.